createdAt,value
2019-04-06T00:01:05.005Z,97410.91
2019-04-06T00:03:36.833Z,97416.33
2019-04-06T00:06:10.703Z,97413.87
2019-04-06T00:08:42.497Z,97413.58
2019-04-06T00:11:14.394Z,97406.55
2019-04-06T00:13:46.418Z,97401.37
2019-04-06T00:16:18.180Z,97408.97
2019-04-06T00:18:49.963Z,97402.73
2019-04-06T00:21:21.927Z,97407.33
2019-04-06T00:23:53.628Z,97399.73
2019-04-06T00:26:25.762Z,97398.86
2019-04-06T00:28:57.740Z,97393.69
2019-04-06T00:31:51.332Z,97399.38
2019-04-06T00:34:23.452Z,97401.55
2019-04-06T00:36:55.086Z,97406.69
2019-04-06T00:39:26.670Z,97407.20
2019-04-06T00:41:58.242Z,97401.50
2019-04-06T00:44:30.002Z,97409.09
2019-04-06T00:47:01.756Z,97397.66
2019-04-06T00:49:33.826Z,97399.58
2019-04-06T00:52:05.927Z,97393.88
2019-04-06T00:54:37.579Z,97395.48
2019-04-06T00:57:09.136Z,97398.77
2019-04-06T00:59:40.979Z,97393.87
2019-04-06T01:02:12.573Z,97400.64
2019-04-06T01:04:44.172Z,97394.13
2019-04-06T01:07:16.629Z,97395.22
2019-04-06T01:09:48.580Z,97393.05
2019-04-06T01:12:20.986Z,97389.52
2019-04-06T01:14:52.703Z,97391.16
2019-04-06T01:17:24.790Z,97391.10
2019-04-06T01:19:57.651Z,97393.27
2019-04-06T01:22:29.345Z,97398.66
2019-04-06T01:25:01.281Z,97397.30
2019-04-06T01:27:33.111Z,97403.78
2019-04-06T01:30:05.487Z,97406.48
2019-04-06T01:32:37.150Z,97401.34
2019-04-06T01:35:08.906Z,97402.70
2019-04-06T01:37:40.406Z,97398.59
2019-04-06T01:40:12.253Z,97399.15
2019-04-06T01:42:44.023Z,97386.69
2019-04-06T01:45:16.573Z,97382.86
2019-04-06T01:47:49.762Z,97380.14
2019-04-06T01:50:21.917Z,97381.48
2019-04-06T01:52:53.870Z,97380.68
2019-04-06T01:55:25.752Z,97380.16
2019-04-06T01:57:57.485Z,97384.52
2019-04-06T02:00:28.967Z,97376.38
2019-04-06T02:03:00.853Z,97386.66
2019-04-06T02:05:32.365Z,97382.00
2019-04-06T02:08:04.051Z,97378.25
2019-04-06T02:10:37.009Z,97380.67
2019-04-06T02:13:08.642Z,97380.35
2019-04-06T02:15:41.472Z,97384.09
2019-04-06T02:18:13.313Z,97385.73
2019-04-06T02:20:45.242Z,97389.23
2019-04-06T02:23:17.061Z,97381.11
2019-04-06T02:25:48.605Z,97377.53
2019-04-06T02:28:20.204Z,97379.17
2019-04-06T02:31:06.357Z,97379.13
2019-04-06T02:34:09.569Z,97381.81
2019-04-06T02:37:01.476Z,97375.57
2019-04-06T02:39:38.743Z,97378.50
2019-04-06T02:42:17.663Z,97372.29
2019-04-06T02:44:49.612Z,97373.39
2019-04-06T02:47:21.143Z,97377.16
2019-04-06T02:49:52.674Z,97375.22
2019-04-06T02:52:24.580Z,97359.75
2019-04-06T02:54:56.167Z,97368.38
2019-04-06T02:57:27.990Z,97366.47
2019-04-06T02:59:59.980Z,97369.19
2019-04-06T03:02:31.618Z,97376.45
2019-04-06T03:05:03.480Z,97379.14
2019-04-06T03:07:35.403Z,97374.83
2019-04-06T03:10:07.633Z,97389.13
2019-04-06T03:12:39.181Z,97392.95
2019-04-06T03:15:11.015Z,97375.84
2019-04-06T03:17:42.996Z,97388.62
2019-04-06T03:20:14.638Z,97379.98
2019-04-06T03:22:46.608Z,97380.22
2019-04-06T03:25:19.183Z,97394.55
2019-04-06T03:27:50.769Z,97396.17
2019-04-06T03:30:22.520Z,97394.53
2019-04-06T03:32:54.512Z,97397.45
2019-04-06T03:35:26.456Z,97395.31
2019-04-06T03:37:59.320Z,97398.22
2019-04-06T03:40:31.262Z,97401.96
2019-04-06T03:43:03.305Z,97401.98
2019-04-06T03:45:35.260Z,97409.84
2019-04-06T03:48:06.921Z,97403.84
2019-04-06T03:50:38.777Z,97417.35
2019-04-06T03:53:10.436Z,97408.66
2019-04-06T03:55:42.809Z,97404.07
2019-04-06T03:58:14.490Z,97398.59
2019-04-06T04:00:46.227Z,97392.70
2019-04-06T04:03:18.001Z,97385.58
2019-04-06T04:05:49.552Z,97387.24
2019-04-06T04:08:21.874Z,97379.41
2019-04-06T04:10:53.919Z,97374.01
2019-04-06T04:13:25.638Z,97370.17
2019-04-06T04:15:58.182Z,97380.42
2019-04-06T04:18:29.865Z,97384.20
2019-04-06T04:21:02.015Z,97378.49
2019-04-06T04:23:34.263Z,97379.05
2019-04-06T04:26:05.928Z,97382.34
2019-04-06T04:28:39.317Z,97396.89
2019-04-06T04:31:10.973Z,97392.22
2019-04-06T04:33:42.730Z,97396.31
2019-04-06T04:36:17.329Z,97385.73
2019-04-06T04:38:48.988Z,97392.22
2019-04-06T04:41:20.516Z,97398.68
2019-04-06T04:43:52.734Z,97400.68
2019-04-06T04:46:24.907Z,97397.88
2019-04-06T04:48:56.679Z,97397.06
2019-04-06T04:51:28.386Z,97431.95
2019-04-06T04:54:01.133Z,97445.22
2019-04-06T04:56:33.445Z,97427.71
2019-04-06T04:59:05.996Z,97436.70
2019-04-06T05:01:37.686Z,97426.45
2019-04-06T05:04:09.442Z,97441.33
2019-04-06T05:06:41.134Z,97434.02
2019-04-06T05:09:12.772Z,97428.59
2019-04-06T05:11:44.438Z,97444.23
2019-04-06T05:14:51.514Z,97444.08
2019-04-06T05:17:24.408Z,97433.09
2019-04-06T05:19:57.622Z,97445.58
2019-04-06T05:22:30.495Z,97438.22
2019-04-06T05:25:02.440Z,97413.34
2019-04-06T05:27:34.260Z,97431.47
2019-04-06T05:30:08.299Z,97420.45
2019-04-06T05:32:39.882Z,97417.17
2019-04-06T05:35:13.318Z,97430.09
2019-04-06T05:37:44.954Z,97423.70
2019-04-06T05:40:16.951Z,97437.00
2019-04-06T05:42:48.959Z,97435.38
2019-04-06T05:45:21.239Z,97441.94
2019-04-06T05:47:53.930Z,97431.89
2019-04-06T05:50:25.533Z,97421.58
2019-04-06T05:52:58.086Z,97416.17
2019-04-06T05:55:29.616Z,97412.79
2019-04-06T05:58:04.421Z,97411.23
2019-04-06T06:00:35.229Z,97408.56
2019-04-06T06:03:08.610Z,97399.63
2019-04-06T06:05:41.162Z,97401.84
2019-04-06T06:08:12.834Z,97398.62
2019-04-06T06:10:44.658Z,97420.04
2019-04-06T06:13:16.528Z,97425.46
2019-04-06T06:15:49.006Z,97430.91
2019-04-06T06:18:26.324Z,97425.31
2019-04-06T06:20:54.018Z,97428.29
2019-04-06T06:23:26.569Z,97430.31
2019-04-06T06:25:58.349Z,97429.16
2019-04-06T06:28:29.947Z,97434.59
2019-04-06T06:31:03.960Z,97431.65
2019-04-06T06:33:35.662Z,97420.20
2019-04-06T06:36:07.541Z,97422.43
2019-04-06T06:38:39.969Z,97420.84
2019-04-06T06:41:11.579Z,97424.91
2019-04-06T06:43:45.259Z,97428.78
2019-04-06T06:46:17.095Z,97416.11
2019-04-06T06:48:49.017Z,97429.97
2019-04-06T06:51:20.896Z,97434.73
2019-04-06T06:53:52.752Z,97434.73
2019-04-06T06:56:24.805Z,97442.80
2019-04-06T06:58:56.841Z,97448.39
2019-04-06T07:01:28.543Z,97446.02
2019-04-06T07:04:01.188Z,97435.81
2019-04-06T07:06:33.043Z,97442.08
2019-04-06T07:09:06.124Z,97441.78
2019-04-06T07:11:37.734Z,97435.62
2019-04-06T07:14:09.575Z,97429.38
2019-04-06T07:16:42.212Z,97427.21
2019-04-06T07:19:14.043Z,97425.86
2019-04-06T07:21:46.661Z,97424.72
2019-04-06T07:24:18.328Z,97426.91
2019-04-06T07:26:49.938Z,97445.95
2019-04-06T07:29:22.648Z,97448.68
2019-04-06T07:31:54.866Z,97446.88
2019-04-06T07:34:26.483Z,97447.20
2019-04-06T07:36:58.202Z,97435.00
2019-04-06T07:39:30.143Z,97449.66
2019-04-06T07:42:02.322Z,97443.67
2019-04-06T07:44:34.904Z,97451.31
2019-04-06T07:47:06.616Z,97434.78
2019-04-06T07:49:38.481Z,97445.63
2019-04-06T07:52:10.302Z,97446.48
2019-04-06T07:54:41.960Z,97438.61
2019-04-06T07:57:14.876Z,97444.89
2019-04-06T07:59:46.899Z,97438.65
2019-04-06T08:02:18.560Z,97451.42
2019-04-06T08:04:50.300Z,97453.31
2019-04-06T08:07:23.763Z,97460.91
2019-04-06T08:09:55.512Z,97464.17
2019-04-06T08:12:27.370Z,97470.95
2019-04-06T08:14:58.988Z,97472.33
2019-04-06T08:17:30.697Z,97470.97
2019-04-06T08:20:04.501Z,97473.70
2019-04-06T08:22:36.342Z,97476.92
2019-04-06T08:25:08.294Z,97486.16
2019-04-06T08:27:39.964Z,97470.40
2019-04-06T08:30:13.283Z,97478.53
2019-04-06T08:32:45.405Z,97465.79
2019-04-06T08:35:25.442Z,97462.55
2019-04-06T08:37:51.756Z,97460.38
2019-04-06T08:40:23.632Z,97461.45
2019-04-06T08:42:55.641Z,97466.09
2019-04-06T08:45:27.324Z,97459.57
2019-04-06T08:48:00.206Z,97453.06
2019-04-06T08:50:32.410Z,97456.33
2019-04-06T08:53:03.976Z,97453.34
2019-04-06T08:55:35.814Z,97450.05
2019-04-06T08:58:07.440Z,97464.42
2019-04-06T09:00:39.227Z,97464.73
2019-04-06T09:03:10.956Z,97471.75
2019-04-06T09:05:43.407Z,97457.33
2019-04-06T09:08:15.079Z,97457.33
2019-04-06T09:10:48.130Z,97480.41
2019-04-06T09:13:20.051Z,97476.34
2019-04-06T09:15:52.057Z,97470.31
2019-04-06T09:18:24.481Z,97458.87
2019-04-06T09:20:56.458Z,97450.48
2019-04-06T09:23:28.075Z,97452.34
2019-04-06T09:26:01.270Z,97446.39
2019-04-06T09:28:33.262Z,97450.12
2019-04-06T09:31:07.074Z,97444.59
2019-04-06T09:33:38.692Z,97449.41
2019-04-06T09:36:10.288Z,97458.28
2019-04-06T09:38:42.323Z,97457.16
2019-04-06T09:41:14.097Z,97466.44
2019-04-06T09:43:45.753Z,97478.34
2019-04-06T09:46:34.967Z,97459.61
2019-04-06T09:49:40.811Z,97457.52
2019-04-06T09:52:31.450Z,97456.73
2019-04-06T09:55:22.125Z,97458.64
2019-04-06T09:58:09.525Z,97457.23
2019-04-06T10:00:47.873Z,97451.28
2019-04-06T10:03:41.302Z,97452.80
2019-04-06T10:06:21.659Z,97456.64
2019-04-06T10:09:12.177Z,97468.42
2019-04-06T10:12:04.546Z,97481.52
2019-04-06T10:15:01.505Z,97476.37
2019-04-06T10:17:56.236Z,97465.39
2019-04-06T10:20:45.815Z,97482.23
2019-04-06T10:23:34.975Z,97487.24
2019-04-06T10:26:38.489Z,97477.73
2019-04-06T10:29:47.974Z,97478.62
2019-04-06T10:32:28.701Z,97475.89
2019-04-06T10:35:16.588Z,97479.16
2019-04-06T10:37:54.931Z,97469.08
2019-04-06T10:40:33.465Z,97463.48
2019-04-06T10:43:24.995Z,97466.99
2019-04-06T10:46:21.532Z,97465.89
2019-04-06T10:49:05.072Z,97476.53
2019-04-06T10:51:56.313Z,97481.30
2019-04-06T10:54:45.960Z,97479.89
2019-04-06T10:57:29.899Z,97476.16
2019-04-06T11:00:26.422Z,97487.63
2019-04-06T11:03:15.799Z,97495.35
2019-04-06T11:06:06.396Z,97486.39
2019-04-06T11:09:00.124Z,97488.89
2019-04-06T11:11:57.298Z,97483.11
2019-04-06T11:14:54.301Z,97483.05
2019-04-06T11:17:40.702Z,97467.22
2019-04-06T11:20:46.691Z,97450.60
2019-04-06T11:23:39.482Z,97456.86
2019-04-06T11:26:20.287Z,97476.91
2019-04-06T11:29:16.934Z,97479.51
2019-04-06T11:32:07.277Z,97484.07
2019-04-06T11:35:01.272Z,97487.45
2019-04-06T11:37:50.080Z,97482.09
2019-04-06T11:40:44.150Z,97484.91
2019-04-06T11:43:44.718Z,97486.23
2019-04-06T11:46:35.177Z,97487.99
2019-04-06T11:49:30.354Z,97476.34
2019-04-06T11:52:36.048Z,97471.94
2019-04-06T11:55:32.823Z,97462.95
2019-04-06T11:58:29.565Z,97451.00
2019-04-06T12:01:08.164Z,97462.95
2019-04-06T12:03:57.536Z,97482.58
2019-04-06T12:06:47.003Z,97490.19
2019-04-06T12:09:43.777Z,97484.22
2019-04-06T12:12:33.244Z,97498.86
2019-04-06T12:15:32.309Z,97507.04
2019-04-06T12:18:26.409Z,97510.75
2019-04-06T12:21:15.741Z,97474.05
2019-04-06T12:24:03.311Z,97464.25
2019-04-06T12:26:45.249Z,97466.61
2019-04-06T12:29:29.638Z,97463.84
2019-04-06T12:32:38.896Z,97457.41
2019-04-06T12:35:34.383Z,97455.78
2019-04-06T12:38:28.173Z,97443.42
2019-04-06T12:41:14.287Z,97438.02
2019-04-06T12:43:57.865Z,97428.97
2019-04-06T12:46:47.452Z,97432.27
2019-04-06T12:49:44.113Z,97430.63
2019-04-06T12:52:28.586Z,97435.86
2019-04-06T12:55:09.506Z,97444.80
2019-04-06T12:58:09.958Z,97448.08
2019-04-06T13:01:00.653Z,97469.52
2019-04-06T13:04:06.979Z,97504.56
2019-04-06T13:06:54.474Z,97520.36
2019-04-06T13:09:47.952Z,97504.89
2019-04-06T13:12:54.128Z,97509.50
2019-04-06T13:15:50.689Z,97500.80
2019-04-06T13:18:47.477Z,97491.02
2019-04-06T13:21:32.064Z,97479.61
2019-04-06T13:24:12.476Z,97468.51
2019-04-06T13:27:00.587Z,97473.64
2019-04-06T13:29:54.462Z,97483.95
2019-04-06T13:32:47.945Z,97483.66
2019-04-06T13:35:41.413Z,97487.97
2019-04-06T13:38:38.019Z,97483.91
2019-04-06T13:41:34.593Z,97480.63
2019-04-06T13:44:31.075Z,97482.80
2019-04-06T13:47:21.745Z,97481.20
2019-04-06T13:50:10.264Z,97485.80
2019-04-06T13:53:07.081Z,97480.67
2019-04-06T13:56:15.912Z,97477.67
2019-04-06T13:59:14.008Z,97476.78
2019-04-06T14:02:01.782Z,97465.64
2019-04-06T14:05:04.575Z,97461.57
2019-04-06T14:07:54.705Z,97457.72
2019-04-06T14:10:58.752Z,97463.87
2019-04-06T14:13:43.049Z,97457.14
2019-04-06T14:16:35.225Z,97459.84
2019-04-06T14:19:24.959Z,97462.84
2019-04-06T14:22:06.862Z,97460.91
2019-04-06T14:24:51.477Z,97464.07
2019-04-06T14:27:44.863Z,97456.47
2019-04-06T14:30:24.639Z,97460.52
2019-04-06T14:33:21.726Z,97444.59
2019-04-06T14:36:10.449Z,97447.30
2019-04-06T14:38:59.167Z,97452.95
2019-04-06T14:41:44.974Z,97455.41
2019-04-06T14:44:38.061Z,97444.57
2019-04-06T14:47:33.302Z,97437.22
2019-04-06T14:50:34.658Z,97432.32
2019-04-06T14:53:27.364Z,97432.00
2019-04-06T14:56:20.702Z,97432.34
2019-04-06T14:59:12.825Z,97433.97
2019-04-06T15:02:00.137Z,97424.81
2019-04-06T15:04:41.638Z,97425.62
2019-04-06T15:07:31.530Z,97434.89
2019-04-06T15:10:34.877Z,97433.88
2019-04-06T15:13:23.804Z,97433.59
2019-04-06T15:16:13.709Z,97449.37
2019-04-06T15:19:11.486Z,97440.72
2019-04-06T15:22:02.067Z,97433.95
2019-04-06T15:25:07.713Z,97422.30
2019-04-06T15:27:57.416Z,97422.59
2019-04-06T15:30:47.500Z,97401.44
2019-04-06T15:33:46.037Z,97395.48
2019-04-06T15:36:37.564Z,97384.08
2019-04-06T15:39:15.975Z,97378.95
2019-04-06T15:41:58.490Z,97381.11
2019-04-06T15:44:41.340Z,97394.66
2019-04-06T15:47:40.972Z,97403.33
2019-04-06T15:50:37.442Z,97391.72
2019-04-06T15:53:31.290Z,97386.30
2019-04-06T15:56:16.979Z,97385.76
2019-04-06T15:59:08.283Z,97385.76
2019-04-06T16:02:03.194Z,97395.25
2019-04-06T16:04:55.120Z,97394.17
2019-04-06T16:07:52.625Z,97399.59
2019-04-06T16:10:36.102Z,97399.06
2019-04-06T16:13:26.877Z,97391.21
2019-04-06T16:16:03.888Z,97389.31
2019-04-06T16:18:50.808Z,97385.50
2019-04-06T16:21:34.553Z,97393.92
2019-04-06T16:24:17.112Z,97389.58
2019-04-06T16:27:10.983Z,97389.83
2019-04-06T16:29:51.412Z,97382.23
2019-04-06T16:32:41.655Z,97392.00
2019-04-06T16:35:25.681Z,97386.30
2019-04-06T16:38:22.618Z,97377.91
2019-04-06T16:41:16.775Z,97383.30
2019-04-06T16:43:57.313Z,97378.70
2019-04-06T16:46:50.931Z,97377.34
2019-04-06T16:49:47.639Z,97378.70
2019-04-06T16:52:44.696Z,97377.88
2019-04-06T16:55:34.360Z,97377.06
2019-04-06T16:58:24.164Z,97377.63
2019-04-06T17:01:27.098Z,97371.64
2019-04-06T17:04:17.405Z,97377.06
2019-04-06T17:07:06.859Z,97375.17
2019-04-06T17:09:55.251Z,97370.29
2019-04-06T17:12:45.817Z,97368.39
2019-04-06T17:15:35.132Z,97373.00
2019-04-06T17:18:25.565Z,97377.34
2019-04-06T17:21:19.288Z,97377.06
2019-04-06T17:24:16.619Z,97383.58
2019-04-06T17:27:21.138Z,97374.89
2019-04-06T17:30:16.539Z,97367.33
2019-04-06T17:32:59.494Z,97364.33
2019-04-06T17:35:43.501Z,97357.84
2019-04-06T17:38:30.254Z,97360.27
2019-04-06T17:41:15.208Z,97360.52
2019-04-06T17:43:55.854Z,97361.34
2019-04-06T17:46:46.833Z,97366.22
2019-04-06T17:49:27.084Z,97365.94
2019-04-06T17:52:23.475Z,97367.03
2019-04-06T17:55:18.208Z,97372.45
2019-04-06T17:58:08.778Z,97376.23
2019-04-06T18:01:01.048Z,97369.98
2019-04-06T18:04:01.093Z,97369.70
2019-04-06T18:06:42.515Z,97365.92
2019-04-06T18:09:20.885Z,97357.80
2019-04-06T18:12:29.986Z,97368.06
2019-04-06T18:15:02.053Z,97365.10
2019-04-06T18:17:35.304Z,97365.10
2019-04-06T18:20:07.366Z,97361.03
2019-04-06T18:22:39.131Z,97362.36
2019-04-06T18:25:10.968Z,97358.86
2019-04-06T18:27:42.936Z,97369.90
2019-04-06T18:30:14.905Z,97369.41
2019-04-06T18:32:59.953Z,97365.30
2019-04-06T18:35:24.613Z,97363.67
2019-04-06T18:38:19.035Z,97348.23
2019-04-06T18:40:50.838Z,97350.13
2019-04-06T18:43:23.438Z,97359.93
2019-04-06T18:45:56.998Z,97353.45
2019-04-06T18:48:29.983Z,97361.59
2019-04-06T18:51:02.217Z,97359.98
2019-04-06T18:53:34.334Z,97363.80
2019-04-06T18:56:06.326Z,97360.55
2019-04-06T18:58:40.569Z,97364.61
2019-04-06T19:01:14.567Z,97365.69
2019-04-06T19:03:46.133Z,97358.09
2019-04-06T19:06:19.351Z,97363.27
2019-04-06T19:08:51.262Z,97361.91
2019-04-06T19:11:23.190Z,97355.42
2019-04-06T19:13:55.511Z,97351.60
2019-04-06T19:16:28.560Z,97353.24
2019-04-06T19:19:00.185Z,97345.37
2019-04-06T19:21:34.371Z,97345.08
2019-04-06T19:24:06.159Z,97350.25
2019-04-06T19:26:38.701Z,97350.21
2019-04-06T19:29:11.699Z,97349.14
2019-04-06T19:31:44.361Z,97349.92
2019-04-06T19:34:15.960Z,97343.97
2019-04-06T19:36:47.542Z,97343.69
2019-04-06T19:39:19.806Z,97341.52
2019-04-06T19:41:51.615Z,97338.80
2019-04-06T19:44:23.331Z,97343.39
2019-04-06T19:46:55.109Z,97363.06
2019-04-06T19:49:27.428Z,97360.78
2019-04-06T19:51:58.997Z,97362.02
2019-04-06T19:54:31.260Z,97364.63
2019-04-06T19:57:03.213Z,97364.90
2019-04-06T19:59:36.174Z,97365.91
2019-04-06T20:02:09.422Z,97367.98
2019-04-06T20:04:41.325Z,97356.75
2019-04-06T20:07:13.021Z,97361.90
2019-04-06T20:09:45.156Z,97349.42
2019-04-06T20:12:16.952Z,97347.21
2019-04-06T20:14:49.110Z,97352.70
2019-04-06T20:17:20.904Z,97352.70
2019-04-06T20:19:54.503Z,97344.87
2019-04-06T20:22:26.019Z,97336.95
2019-04-06T20:24:57.751Z,97335.58
2019-04-06T20:27:29.577Z,97328.52
2019-04-06T20:30:01.527Z,97331.48
2019-04-06T20:32:33.756Z,97324.95
2019-04-06T20:35:07.015Z,97320.56
2019-04-06T20:37:38.617Z,97322.42
2019-04-06T20:40:10.593Z,97320.28
2019-04-06T20:42:42.331Z,97322.91
2019-04-06T20:45:13.975Z,97335.06
2019-04-06T20:47:45.686Z,97336.38
2019-04-06T20:50:17.894Z,97335.86
2019-04-06T20:52:50.763Z,97342.05
2019-04-06T20:55:22.671Z,97325.52
2019-04-06T20:57:56.117Z,97334.44
2019-04-06T21:00:28.518Z,97342.01
2019-04-06T21:03:01.083Z,97335.81
2019-04-06T21:05:34.592Z,97330.94
2019-04-06T21:08:07.052Z,97324.92
2019-04-06T21:10:38.867Z,97328.94
2019-04-06T21:13:11.197Z,97322.34
2019-04-06T21:15:43.637Z,97323.98
2019-04-06T21:18:16.595Z,97312.89
2019-04-06T21:20:48.723Z,97309.89
2019-04-06T21:23:20.716Z,97305.00
2019-04-06T21:25:52.865Z,97315.20
2019-04-06T21:28:24.704Z,97313.52
2019-04-06T21:30:57.069Z,97315.47
2019-04-06T21:33:29.660Z,97311.19
2019-04-06T21:36:01.660Z,97320.84
2019-04-06T21:38:33.330Z,97321.61
2019-04-06T21:41:06.255Z,97317.53
2019-04-06T21:43:38.021Z,97320.20
2019-04-06T21:46:10.595Z,97321.48
2019-04-06T21:48:43.813Z,97314.97
2019-04-06T21:51:15.825Z,97295.58
2019-04-06T21:53:48.234Z,97295.58
2019-04-06T21:56:20.117Z,97300.65
2019-04-06T21:58:53.127Z,97301.53
2019-04-06T22:01:25.425Z,97298.48
2019-04-06T22:03:58.616Z,97299.80
2019-04-06T22:06:30.516Z,97303.05
2019-04-06T22:09:02.761Z,97300.59
2019-04-06T22:11:37.099Z,97298.62
2019-04-06T22:14:09.299Z,97300.47
2019-04-06T22:16:41.799Z,97299.12
2019-04-06T22:19:13.333Z,97290.86
2019-04-06T22:21:45.275Z,97291.80
2019-04-06T22:24:18.643Z,97283.33
2019-04-06T22:26:50.699Z,97284.32
2019-04-06T22:29:22.825Z,97284.81
2019-04-06T22:31:56.144Z,97283.14
2019-04-06T22:34:36.334Z,97287.68
2019-04-06T22:37:01.385Z,97286.13
2019-04-06T22:39:34.012Z,97291.06
2019-04-06T22:42:06.133Z,97288.92
2019-04-06T22:44:38.215Z,97286.75
2019-04-06T22:47:10.237Z,97281.92
2019-04-06T22:49:43.267Z,97283.27
2019-04-06T22:52:15.631Z,97289.57
2019-04-06T22:54:47.735Z,97292.77
2019-04-06T22:57:19.295Z,97296.77
2019-04-06T22:59:50.887Z,97297.33
2019-04-06T23:02:22.671Z,97300.31
2019-04-06T23:05:16.203Z,97291.91
2019-04-06T23:07:48.418Z,97286.98
2019-04-06T23:10:20.264Z,97284.48
2019-04-06T23:12:52.136Z,97274.64
2019-04-06T23:15:24.524Z,97276.94
2019-04-06T23:17:56.377Z,97276.31
2019-04-06T23:20:29.906Z,97278.34
2019-04-06T23:23:02.248Z,97267.58
2019-04-06T23:25:34.079Z,97267.91
2019-04-06T23:28:05.923Z,97272.20
2019-04-06T23:30:38.487Z,97279.77
2019-04-06T23:33:10.042Z,97273.06
2019-04-06T23:35:42.280Z,97265.80
2019-04-06T23:38:15.315Z,97257.98
2019-04-06T23:40:47.164Z,97254.90
2019-04-06T23:43:19.839Z,97254.61
2019-04-06T23:45:51.592Z,97257.92
2019-04-06T23:48:24.544Z,97264.09
2019-04-06T23:50:57.345Z,97268.92
2019-04-06T23:53:30.465Z,97268.89
2019-04-06T23:56:02.690Z,97265.63
2019-04-06T23:58:35.204Z,97264.03
